Time;durP1;ratioP1;P1;durP2;ratioP2;P2;SDS_P1;SDS_P2;PMS_P1;PMS_P2;Temp;Humidity;BMP_temperature;BMP_pressure;BME280_temperature;BME280_humidity;BME280_pressure;Samples;Min_cycle;Max_cycle;Signal;HPM_P1;HPM_P2
2023/12/15 00:00:21;;;;;;;10.00;6.70;;;;;;;-1.35;88.97;100210.02;108258;1253;72551;-72
2023/12/15 00:02:49;;;;;;;11.80;7.10;;;;;;;-1.35;88.84;100214.92;108276;1253;72721;-73
2023/12/15 00:05:16;;;;;;;15.70;6.80;;;;;;;-1.37;88.72;100222.16;108175;1253;72572;-73
2023/12/15 00:07:42;;;;;;;12.40;6.00;;;;;;;-1.38;88.53;100222.43;108169;1253;60646;-73
2023/12/15 00:10:09;;;;;;;11.00;5.40;;;;;;;-1.38;88.78;100229.05;108268;1253;61072;-73
2023/12/15 00:12:37;;;;;;;11.60;6.00;;;;;;;-1.41;88.45;100232.36;108122;1253;73866;-71
2023/12/15 00:15:04;;;;;;;11.70;5.50;;;;;;;-1.41;88.41;100242.35;108138;1253;71662;-73
2023/12/15 00:17:31;;;;;;;13.10;5.60;;;;;;;-1.41;88.47;100245.11;108494;1253;72496;-71
2023/12/15 00:19:58;;;;;;;10.80;5.50;;;;;;;-1.42;88.65;100243.87;108150;1254;60994;-72
2023/12/15 00:22:25;;;;;;;13.70;6.30;;;;;;;-1.43;88.79;100248.46;108181;1254;60180;-71
2023/12/15 00:24:52;;;;;;;17.20;6.80;;;;;;;-1.42;89.00;100248.89;108169;1254;73909;-72
2023/12/15 00:27:19;;;;;;;12.40;6.00;;;;;;;-1.39;89.47;100252.73;108157;1254;72788;-71
2023/12/15 00:29:46;;;;;;;12.30;6.80;;;;;;;-1.38;89.32;100261.56;108112;1258;73928;-73
2023/12/15 00:32:12;;;;;;;15.40;6.40;;;;;;;-1.40;89.88;100261.83;108047;1254;61067;-72
2023/12/15 00:34:39;;;;;;;12.60;6.20;;;;;;;-1.40;89.94;100267.75;108039;1253;60435;-72
2023/12/15 00:37:08;;;;;;;14.20;8.40;;;;;;;-1.39;90.27;100274.73;108082;1254;74506;-73
2023/12/15 00:39:37;;;;;;;14.40;6.70;;;;;;;-1.39;90.62;100272.89;108160;1253;72616;-72
2023/12/15 00:42:05;;;;;;;14.40;6.60;;;;;;;-1.36;90.93;100272.96;108220;1257;72439;-73
2023/12/15 00:44:34;;;;;;;13.00;6.80;;;;;;;-1.34;91.21;100272.74;108152;1253;60930;-72
2023/12/15 00:47:02;;;;;;;10.30;6.00;;;;;;;-1.32;91.35;100271.02;108092;1254;60393;-72
2023/12/15 00:49:29;;;;;;;12.30;6.20;;;;;;;-1.32;91.07;100269.48;108069;1254;73944;-72
2023/12/15 00:51:56;;;;;;;9.90;5.80;;;;;;;-1.33;90.60;100264.72;108314;1253;71964;-72
2023/12/15 01:08:10;;;;;;;11.80;5.30;;;;;;;-1.27;89.25;100285.48;105942;1279;614189;-65
2023/12/15 01:10:38;;;;;;;10.80;5.00;;;;;;;-1.07;87.61;100295.98;107321;1263;162928;-67
2023/12/15 01:13:05;;;;;;;11.50;5.50;;;;;;;-1.10;87.53;100302.29;107555;1263;59987;-65
2023/12/15 01:15:34;;;;;;;11.80;5.40;;;;;;;-1.14;87.11;100308.65;107459;1263;72326;-65
2023/12/15 01:18:01;;;;;;;10.30;5.30;;;;;;;-1.23;86.37;100316.27;107455;1263;72749;-65
2023/12/15 01:20:29;;;;;;;10.50;4.80;;;;;;;-1.29;85.52;100317.24;107916;1257;70855;-66
2023/12/15 01:22:57;;;;;;;9.50;4.70;;;;;;;-1.35;84.73;100331.34;108101;1255;59485;-65
2023/12/15 02:31:58;;;;;;;10.10;4.80;;;;;;;-1.89;92.25;100479.43;105836;1283;612950;-67
2023/12/15 02:34:27;;;;;;;12.20;4.60;;;;;;;-1.53;89.06;100489.00;107292;1266;145999;-66
2023/12/15 02:36:55;;;;;;;14.10;5.40;;;;;;;-1.52;88.64;100496.90;107464;1264;59400;-66
2023/12/15 08:25:01;;;;;;;17.10;10.60;;;;;;;0.50;100.00;100978.46;104781;1294;615369;-66
2023/12/15 08:27:29;;;;;;;19.10;11.00;;;;;;;0.92;100.00;100978.75;107160;1265;200716;-67
2023/12/15 08:29:59;;;;;;;15.70;11.20;;;;;;;0.99;100.00;100981.70;107371;1266;60032;-66
2023/12/15 08:32:27;;;;;;;16.20;10.60;;;;;;;1.07;100.00;100992.16;107387;1266;71015;-67
2023/12/15 08:34:54;;;;;;;15.90;10.60;;;;;;;1.08;100.00;100992.33;107343;1266;71441;-66
2023/12/15 08:37:22;;;;;;;18.90;11.50;;;;;;;1.09;99.80;100997.13;107344;1266;71175;-66
2023/12/15 08:39:50;;;;;;;18.50;11.50;;;;;;;1.12;99.12;101001.95;107365;1266;59905;-66
2023/12/15 08:42:17;;;;;;;18.20;12.20;;;;;;;1.18;98.48;101005.37;107320;1266;59456;-66
2023/12/15 08:44:45;;;;;;;21.10;12.00;;;;;;;1.22;97.40;101010.67;107353;1266;71043;-66
2023/12/15 08:47:13;;;;;;;20.70;12.10;;;;;;;1.22;96.46;101013.63;107388;1266;71484;-66
2023/12/15 08:49:41;;;;;;;20.60;12.90;;;;;;;1.24;95.97;101011.30;107361;1266;71446;-65
2023/12/15 08:52:08;;;;;;;20.80;13.20;;;;;;;1.30;96.03;101014.42;107344;1266;59525;-67
2023/12/15 08:54:36;;;;;;;22.10;14.10;;;;;;;1.36;95.81;101018.46;107357;1266;60025;-66
2023/12/15 08:57:04;;;;;;;20.10;12.70;;;;;;;1.39;95.12;101023.44;107306;1266;71436;-67
2023/12/15 08:59:32;;;;;;;21.30;12.50;;;;;;;1.39;94.08;101026.42;107417;1270;72329;-66
2023/12/15 09:02:00;;;;;;;18.80;12.80;;;;;;;1.37;93.47;101028.95;107165;1266;72699;-65
2023/12/15 09:04:28;;;;;;;18.80;12.80;;;;;;;1.33;93.15;101025.95;84705;1267;10002283;-67
2023/12/15 09:06:56;;;;;;;19.90;12.00;;;;;;;1.27;92.94;101027.71;107970;1266;59376;-66
2023/12/15 09:09:24;;;;;;;22.80;13.60;;;;;;;1.26;92.87;101027.81;108073;1266;59279;-66
2023/12/15 09:11:52;;;;;;;22.10;12.00;;;;;;;1.27;93.05;101030.58;107199;1266;73094;-66
2023/12/15 09:14:21;;;;;;;19.90;12.00;;;;;;;1.27;93.05;101030.41;107346;1263;72929;-65
2023/12/15 09:16:49;;;;;;;19.60;11.20;;;;;;;1.30;93.31;101034.27;107366;1267;72571;-66
2023/12/15 09:19:16;;;;;;;20.20;11.90;;;;;;;1.34;93.87;101039.20;107437;1263;60730;-65
2023/12/15 09:21:44;;;;;;;18.70;12.30;;;;;;;1.37;93.90;101043.57;107420;1262;59049;-66
2023/12/15 09:24:14;;;;;;;19.50;11.20;;;;;;;1.35;93.71;101044.31;108658;1263;73111;-66
2023/12/15 09:26:44;;;;;;;17.70;11.60;;;;;;;1.36;93.95;101051.22;108520;1263;73306;-65
2023/12/15 09:29:13;;;;;;;16.50;11.60;;;;;;;1.40;93.99;101053.04;107257;1263;71506;-66
2023/12/15 09:31:41;;;;;;;17.90;11.50;;;;;;;1.42;94.19;101058.02;107325;1263;59641;-65
2023/12/15 09:34:09;;;;;;;19.90;12.30;;;;;;;1.42;94.15;101061.81;107371;1263;60060;-66
2023/12/15 09:36:36;;;;;;;19.20;12.30;;;;;;;1.44;93.82;101062.27;107346;1263;72192;-66
2023/12/15 09:39:04;;;;;;;18.80;11.00;;;;;;;1.50;94.21;101063.48;107349;1262;72547;-65
2023/12/15 09:41:32;;;;;;;18.80;11.90;;;;;;;1.54;93.77;101067.01;107401;1263;72728;-65
2023/12/15 09:44:01;;;;;;;21.40;12.90;;;;;;;1.56;93.73;101071.73;107244;1263;59597;-66
2023/12/15 09:46:29;;;;;;;19.70;11.30;;;;;;;1.63;93.83;101074.85;107355;1263;60212;-66
2023/12/15 09:48:57;;;;;;;19.50;13.10;;;;;;;1.72;93.89;101068.84;107293;1266;72829;-66
2023/12/15 09:51:25;;;;;;;17.80;11.30;;;;;;;1.82;93.74;101071.10;107302;1263;71454;-66
2023/12/15 09:53:53;;;;;;;18.90;12.70;;;;;;;1.91;92.87;101071.77;107336;1263;71395;-66
2023/12/15 09:56:21;;;;;;;20.20;12.50;;;;;;;2.00;92.43;101075.95;107349;1263;59738;-66
2023/12/15 09:58:48;;;;;;;22.70;13.10;;;;;;;2.11;92.10;101078.77;107211;1263;60206;-65
2023/12/15 10:01:16;;;;;;;18.40;11.20;;;;;;;2.19;90.80;101083.95;107331;1263;72201;-67
2023/12/15 10:03:44;;;;;;;19.40;11.90;;;;;;;2.26;89.97;101078.05;107312;1263;71530;-66
2023/12/15 10:06:13;;;;;;;16.50;10.60;;;;;;;2.34;89.24;101083.02;107313;1263;73213;-66
2023/12/15 10:08:42;;;;;;;16.50;11.20;;;;;;;2.38;88.04;101082.01;107332;1263;59644;-66
2023/12/15 10:11:32;;;;;;;18.20;10.40;;;;;;;2.39;86.56;101083.52;108226;1263;58756;-65
2023/12/15 10:14:04;;;;;;;15.90;10.00;;;;;;;2.40;85.82;101084.04;108130;1263;73072;-66
2023/12/15 10:16:37;;;;;;;18.10;10.90;;;;;;;2.40;84.71;101084.89;108180;1263;73175;-64
2023/12/15 10:19:05;;;;;;;15.80;10.40;;;;;;;2.37;84.12;101084.55;107374;1263;73023;-66
2023/12/15 10:21:34;;;;;;;17.20;10.00;;;;;;;2.37;83.74;101090.92;107312;1263;59632;-66
2023/12/15 10:24:21;;;;;;;16.70;10.80;;;;;;;2.39;83.63;101094.39;107353;1263;59644;-66
2023/12/15 10:26:49;;;;;;;13.40;9.60;;;;;;;2.40;83.16;101098.11;107392;1263;71864;-66
2023/12/15 10:29:21;;;;;;;14.90;10.40;;;;;;;2.37;82.64;101096.48;107274;1262;72843;-67
2023/12/15 10:31:50;;;;;;;;;;;;;;;2.34;82.25;101096.04;108525;1263;72847;-65
2023/12/15 10:34:23;;;;;;;15.10;9.60;;;;;;;2.32;82.14;101101.55;108377;1263;60989;-65
2023/12/15 10:36:51;;;;;;;14.10;9.40;;;;;;;2.30;81.95;101100.23;107352;1263;62103;-65
2023/12/15 10:39:19;;;;;;;13.30;8.90;;;;;;;2.26;82.10;101105.95;107469;1263;73364;-64
2023/12/15 10:41:47;;;;;;;15.10;9.10;;;;;;;2.24;82.22;101107.44;107460;1263;71663;-65
2023/12/15 10:44:15;;;;;;;14.50;9.90;;;;;;;2.22;82.32;101104.70;107362;1263;72664;-65
2023/12/15 10:46:44;;;;;;;17.10;9.40;;;;;;;2.21;82.56;101107.04;107469;1263;61508;-66
2023/12/15 10:49:11;;;;;;;14.80;9.30;;;;;;;2.17;82.71;101111.66;107476;1262;59010;-65
2023/12/15 10:51:40;;;;;;;16.10;9.60;;;;;;;2.17;82.81;101113.97;107928;1263;72231;-64
2023/12/15 10:54:08;;;;;;;17.70;9.50;;;;;;;2.19;83.31;101117.27;107422;1263;71431;-65
2023/12/15 10:56:37;;;;;;;16.50;9.00;;;;;;;2.17;83.56;101117.05;107458;1263;71148;-66
2023/12/15 10:59:06;;;;;;;14.10;9.20;;;;;;;2.18;83.73;101116.69;107633;1260;59571;-65
2023/12/15 11:01:35;;;;;;;15.90;9.70;;;;;;;2.18;84.12;101114.14;107791;1260;59623;-65
2023/12/15 11:04:16;;;;;;;14.20;8.90;;;;;;;2.19;84.17;101113.70;107590;1260;75733;-65
2023/12/15 11:06:44;;;;;;;14.70;9.50;;;;;;;2.18;84.42;101113.16;107689;1260;71764;-64
2023/12/15 11:09:12;;;;;;;14.60;9.00;;;;;;;2.15;84.66;101114.33;107590;1260;71420;-65
2023/12/15 11:11:39;;;;;;;15.40;9.40;;;;;;;2.15;85.04;101112.78;107563;1263;59494;-65
2023/12/15 11:14:07;;;;;;;14.00;9.10;;;;;;;2.15;85.23;101112.49;107539;1260;60020;-64
2023/12/15 11:16:36;;;;;;;14.80;9.40;;;;;;;2.14;85.53;101115.69;107684;1260;73180;-66
2023/12/15 11:19:04;;;;;;;14.00;9.20;;;;;;;2.12;85.83;101117.17;107926;1260;72003;-65
2023/12/15 11:21:32;;;;;;;12.70;8.70;;;;;;;2.10;85.90;101117.02;107614;1260;71415;-64
2023/12/15 11:24:03;;;;;;;12.50;8.30;;;;;;;2.09;86.05;101121.88;107626;1260;59684;-64
2023/12/15 11:26:37;;;;;;;12.50;7.90;;;;;;;2.10;86.25;101123.18;107660;1260;60114;-66
2023/12/15 11:29:09;;;;;;;15.40;8.30;;;;;;;2.12;86.70;101129.13;107653;1260;73182;-65
2023/12/15 11:31:40;;;;;;;13.00;8.40;;;;;;;2.10;87.02;101130.27;107696;1260;72751;-65
2023/12/15 11:34:08;;;;;;;13.30;7.30;;;;;;;2.06;87.27;101132.87;107687;1260;74797;-65
2023/12/15 11:36:47;;;;;;;12.70;8.60;;;;;;;2.01;87.90;101133.93;107763;1260;60927;-65
2023/12/15 11:51:52;;;;;;;10.80;8.20;;;;;;;2.00;89.41;101149.58;105521;1282;614179;-69
2023/12/15 11:54:19;;;;;;;13.40;8.30;;;;;;;2.04;89.88;101153.94;107084;1268;179788;-70
2023/12/15 11:56:46;;;;;;;12.20;8.30;;;;;;;2.02;90.40;101152.50;107213;1269;59407;-71
2023/12/15 11:59:13;;;;;;;11.80;7.80;;;;;;;2.02;90.77;101153.19;107292;1267;72139;-70
2023/12/15 12:01:39;;;;;;;10.80;7.70;;;;;;;2.03;90.67;101156.42;107688;1260;72696;-70
2023/12/15 12:04:17;;;;;;;12.10;7.60;;;;;;;2.10;90.22;101162.91;107586;1265;72624;-70
2023/12/15 12:06:45;;;;;;;12.40;7.90;;;;;;;2.12;89.91;101163.34;107492;1260;61024;-70
2023/12/15 12:09:12;;;;;;;11.40;7.80;;;;;;;2.29;88.51;101167.59;107518;1260;59120;-70
2023/12/15 12:11:39;;;;;;;11.00;8.00;;;;;;;2.30;87.90;101173.80;107676;1260;72293;-71
2023/12/15 12:14:07;;;;;;;13.10;9.20;;;;;;;2.34;87.83;101173.91;107675;1260;72685;-70
2023/12/15 12:16:34;;;;;;;19.60;13.40;;;;;;;2.36;87.54;101177.13;107541;1267;72773;-71
2023/12/15 12:19:02;;;;;;;27.60;19.40;;;;;;;2.35;87.08;101168.77;107639;1261;62196;-69
2023/12/15 12:21:29;;;;;;;21.60;14.90;;;;;;;2.35;87.24;101170.19;107663;1260;60332;-70
2023/12/15 12:23:56;;;;;;;18.60;12.30;;;;;;;2.33;87.09;101171.84;107680;1260;72968;-70
2023/12/15 12:26:22;;;;;;;14.80;10.20;;;;;;;2.26;87.46;101178.94;107700;1260;73566;-73
2023/12/15 12:28:50;;;;;;;14.20;9.40;;;;;;;2.18;88.84;101182.70;107714;1260;72512;-70
2023/12/15 12:31:19;;;;;;;14.90;9.40;;;;;;;2.33;88.31;101180.31;107628;1260;62033;-69
2023/12/15 12:33:47;;;;;;;13.60;9.40;;;;;;;2.37;88.13;101182.51;107440;1265;60439;-71
2023/12/15 12:36:14;;;;;;;16.70;11.80;;;;;;;2.35;88.25;101187.35;107609;1261;73136;-70
2023/12/15 12:38:41;;;;;;;16.40;10.80;;;;;;;2.37;88.58;101192.02;107624;1260;73009;-71
2023/12/15 12:41:08;;;;;;;17.90;12.60;;;;;;;2.37;88.54;101199.41;107599;1261;73033;-71
2023/12/15 12:43:35;;;;;;;19.50;12.90;;;;;;;2.33;88.69;101201.60;107589;1261;59647;-71
2023/12/15 12:46:02;;;;;;;18.10;11.90;;;;;;;2.31;88.83;101212.58;107634;1266;59581;-69
2023/12/15 12:48:30;;;;;;;20.30;14.60;;;;;;;2.27;88.91;101216.02;107558;1262;73005;-71
2023/12/15 12:50:57;;;;;;;18.60;12.70;;;;;;;2.24;89.41;101218.91;107621;1261;72921;-71
2023/12/15 12:53:25;;;;;;;16.50;11.00;;;;;;;2.20;89.72;101222.17;107587;1262;72643;-70
2023/12/15 12:55:53;;;;;;;19.10;13.60;;;;;;;2.17;90.04;101223.23;107651;1260;59985;-71
2023/12/15 12:58:20;;;;;;;19.90;13.50;;;;;;;2.14;90.48;101227.95;107632;1261;60417;-69
2023/12/15 13:00:51;;;;;;;17.80;11.20;;;;;;;2.15;90.99;101229.30;107620;1265;73171;-71
2023/12/15 13:03:18;;;;;;;16.90;10.80;;;;;;;2.16;91.58;101226.38;107604;1261;73544;-71
2023/12/15 13:05:46;;;;;;;15.30;9.50;;;;;;;2.16;91.83;101225.94;107575;1265;71254;-69
2023/12/15 13:08:14;;;;;;;14.50;9.90;;;;;;;2.15;92.53;101228.24;107483;1261;60898;-73
2023/12/15 13:10:43;;;;;;;14.70;9.30;;;;;;;2.14;93.01;101233.13;107610;1261;59571;-70
2023/12/15 13:13:12;;;;;;;14.30;9.80;;;;;;;2.09;93.60;101231.94;107988;1260;71716;-70
2023/12/15 13:15:39;;;;;;;14.90;9.50;;;;;;;2.08;94.41;101235.19;108018;1258;73026;-71
2023/12/15 13:18:09;;;;;;;15.60;10.10;;;;;;;2.09;95.07;101235.23;107985;1257;71404;-70
2023/12/15 13:20:37;;;;;;;15.30;10.40;;;;;;;2.12;95.65;101237.48;107835;1257;59871;-71
2023/12/15 13:23:04;;;;;;;15.50;10.90;;;;;;;2.17;95.83;101241.03;107968;1257;59570;-70
2023/12/15 13:25:32;;;;;;;16.00;10.00;;;;;;;2.23;96.58;101246.71;108028;1258;72955;-70
2023/12/15 13:28:06;;;;;;;17.00;10.60;;;;;;;2.28;96.61;101249.11;107997;1256;71802;-70
2023/12/15 13:30:32;;;;;;;16.60;10.90;;;;;;;2.29;96.64;101251.48;107986;1256;71456;-70
2023/12/15 13:33:00;;;;;;;16.50;11.20;;;;;;;2.28;96.79;101251.39;107887;1257;59665;-70
2023/12/15 13:35:27;;;;;;;14.90;9.50;;;;;;;2.25;96.93;101255.77;107886;1257;60350;-70
2023/12/15 13:37:54;;;;;;;13.80;9.30;;;;;;;2.21;97.33;101254.88;107859;1259;74154;-70
2023/12/15 13:40:21;;;;;;;14.10;9.60;;;;;;;2.19;97.97;101260.06;107913;1257;71403;-70
2023/12/15 13:42:48;;;;;;;15.20;9.90;;;;;;;2.14;98.66;101261.00;107840;1256;72930;-70
2023/12/15 13:45:15;;;;;;;12.80;8.20;;;;;;;2.14;99.51;101265.55;107977;1257;62521;-69
2023/12/15 13:47:43;;;;;;;14.80;9.30;;;;;;;2.14;99.97;101272.14;107974;1258;60406;-69
2023/12/15 13:50:10;;;;;;;13.30;9.00;;;;;;;2.14;100.00;101277.08;108029;1260;72135;-70
2023/12/15 13:52:38;;;;;;;13.00;8.90;;;;;;;2.13;100.00;101278.85;107848;1257;73094;-70
2023/12/15 14:07:27;;;;;;;11.10;7.80;;;;;;;2.26;100.00;101315.20;105499;1284;614518;-71
2023/12/15 14:09:55;;;;;;;8.80;6.10;;;;;;;2.26;99.40;101338.94;107559;1260;182988;-72
2023/12/15 14:12:22;;;;;;;8.60;5.50;;;;;;;2.15;96.38;101351.36;107891;1257;62210;-70
2023/12/15 14:14:50;;;;;;;9.10;5.70;;;;;;;2.04;93.39;101355.40;107908;1257;74397;-71
2023/12/15 14:17:20;;;;;;;7.90;5.00;;;;;;;1.96;91.23;101365.61;107794;1258;72999;-71
2023/12/15 14:19:50;;;;;;;7.90;4.70;;;;;;;1.86;88.81;101366.73;107794;1259;73234;-70
2023/12/15 14:22:18;;;;;;;8.50;5.60;;;;;;;1.77;86.31;101359.05;107628;1259;59913;-71
2023/12/15 14:24:46;;;;;;;11.60;5.20;;;;;;;1.71;84.64;101362.69;107720;1259;60040;-70
2023/12/15 14:27:15;;;;;;;7.10;4.90;;;;;;;1.64;83.54;101363.08;107743;1260;73014;-73
2023/12/15 14:29:42;;;;;;;8.50;5.40;;;;;;;1.57;82.80;101361.83;107664;1261;71960;-71
2023/12/15 14:32:14;;;;;;;7.60;5.50;;;;;;;1.53;81.90;101370.05;107589;1259;72845;-71
2023/12/15 14:34:42;;;;;;;9.10;5.30;;;;;;;1.49;81.34;101386.79;107715;1259;61002;-70
2023/12/15 14:37:10;;;;;;;8.50;4.80;;;;;;;1.42;79.37;101395.90;107740;1259;60200;-71
2023/12/15 14:39:38;;;;;;;8.40;4.40;;;;;;;1.30;77.66;101396.71;107712;1259;73441;-70
2023/12/15 14:42:05;;;;;;;6.00;3.80;;;;;;;1.19;76.29;101398.66;107742;1259;73175;-72
2023/12/15 14:44:33;;;;;;;6.60;3.80;;;;;;;1.06;74.99;101408.50;107815;1258;74936;-70
2023/12/15 14:47:01;;;;;;;6.50;3.70;;;;;;;0.99;74.28;101409.01;107734;1259;59714;-70
2023/12/15 14:49:30;;;;;;;5.20;3.30;;;;;;;0.89;73.53;101421.81;107712;1259;60100;-70
2023/12/15 14:51:59;;;;;;;5.70;3.60;;;;;;;0.82;72.67;101419.84;107682;1260;75292;-70
2023/12/15 14:54:26;;;;;;;5.70;3.70;;;;;;;0.75;72.09;101427.14;107743;1260;72063;-71
2023/12/15 14:56:54;;;;;;;5.70;3.80;;;;;;;0.70;71.69;101433.42;107621;1262;72762;-70
2023/12/15 14:59:26;;;;;;;5.20;3.70;;;;;;;0.67;71.47;101429.91;107738;1257;62073;-70
2023/12/15 15:01:54;;;;;;;5.50;3.70;;;;;;;0.63;71.26;101440.17;107834;1257;62288;-69
2023/12/15 15:04:23;;;;;;;6.00;3.90;;;;;;;0.59;71.12;101441.38;107698;1257;73131;-69
2023/12/15 15:06:54;;;;;;;7.70;4.20;;;;;;;0.53;71.04;101437.06;107786;1258;73038;-68
2023/12/15 15:09:21;;;;;;;6.80;4.40;;;;;;;0.52;71.41;101441.09;107698;1259;70516;-69
2023/12/15 15:11:49;;;;;;;7.00;4.40;;;;;;;0.55;71.13;101437.80;107709;1258;60923;-70
2023/12/15 15:14:17;;;;;;;6.60;4.30;;;;;;;0.53;71.26;101446.54;107694;1258;59944;-68
2023/12/15 15:16:45;;;;;;;7.30;4.50;;;;;;;0.51;71.20;101444.67;107787;1258;73222;-68
2023/12/15 15:19:13;;;;;;;7.50;4.80;;;;;;;0.48;71.16;101451.35;107675;1258;72894;-70
2023/12/15 15:21:40;;;;;;;6.70;4.50;;;;;;;0.44;71.45;101451.92;107691;1260;72850;-68
2023/12/15 15:24:08;;;;;;;7.30;4.90;;;;;;;0.42;71.59;101460.02;107797;1258;59696;-68
2023/12/15 15:26:36;;;;;;;7.20;4.70;;;;;;;0.40;71.71;101464.85;107795;1258;59612;-69
2023/12/15 15:29:03;;;;;;;8.90;4.60;;;;;;;0.38;71.32;101475.20;107739;1258;73161;-68
2023/12/15 15:31:31;;;;;;;6.70;4.20;;;;;;;0.37;71.30;101481.61;107685;1258;70625;-69
2023/12/15 15:33:59;;;;;;;6.30;3.80;;;;;;;0.37;71.00;101483.91;107759;1259;71626;-69
2023/12/15 15:36:28;;;;;;;5.60;3.80;;;;;;;0.36;70.87;101479.76;107797;1258;59670;-69
2023/12/15 15:38:56;;;;;;;5.90;3.70;;;;;;;0.35;70.52;101480.58;107752;1258;59544;-69
2023/12/15 15:41:25;;;;;;;6.10;3.80;;;;;;;0.35;70.40;101483.91;107792;1258;72781;-68
2023/12/15 15:43:53;;;;;;;6.20;4.00;;;;;;;0.35;70.30;101488.30;107734;1258;72890;-69
2023/12/15 15:46:33;;;;;;;6.30;4.20;;;;;;;0.37;70.16;101489.73;107705;1258;72634;-69
2023/12/15 15:49:00;;;;;;;6.60;4.40;;;;;;;0.38;70.03;101496.61;107688;1258;61591;-69
2023/12/15 15:51:29;;;;;;;6.80;4.10;;;;;;;0.38;70.00;101498.19;107857;1257;59537;-69
2023/12/15 15:53:56;;;;;;;6.70;4.10;;;;;;;0.38;70.07;101502.13;107949;1256;73335;-69
2023/12/15 15:56:26;;;;;;;6.40;4.40;;;;;;;0.40;69.98;101500.59;108041;1256;73103;-70
2023/12/15 15:58:55;;;;;;;7.40;4.60;;;;;;;0.42;70.07;101509.84;107892;1257;72497;-69
2023/12/15 16:01:24;;;;;;;7.50;5.20;;;;;;;0.42;70.25;101509.08;107772;1257;59467;-69
2023/12/15 16:04:07;;;;;;;7.30;4.70;;;;;;;0.42;70.26;101513.75;107824;1257;62188;-68
2023/12/15 16:06:35;;;;;;;7.50;5.00;;;;;;;0.44;70.36;101525.74;107804;1257;71824;-69
2023/12/15 16:09:02;;;;;;;7.50;5.00;;;;;;;0.43;70.48;101523.69;107809;1258;71634;-69
2023/12/15 16:11:30;;;;;;;8.40;4.80;;;;;;;0.44;70.66;101528.80;107804;1257;71161;-69
2023/12/15 16:13:58;;;;;;;8.10;5.20;;;;;;;0.44;70.78;101527.77;107834;1257;59641;-69
2023/12/15 16:16:34;;;;;;;8.00;4.90;;;;;;;0.46;70.74;101530.08;107865;1258;60341;-68
2023/12/15 16:19:02;;;;;;;7.70;4.80;;;;;;;0.45;70.89;101533.58;107734;1257;73060;-68
2023/12/15 16:21:35;;;;;;;8.50;5.10;;;;;;;0.46;71.13;101535.33;107817;1257;72280;-69
2023/12/15 16:24:04;;;;;;;8.40;4.90;;;;;;;0.44;71.37;101531.30;107865;1258;72791;-70
2023/12/15 16:26:32;;;;;;;8.60;5.30;;;;;;;0.46;71.61;101528.86;107827;1257;59811;-68
2023/12/15 16:29:00;;;;;;;9.80;6.20;;;;;;;0.45;71.76;101533.61;107834;1257;60243;-69
2023/12/15 16:31:28;;;;;;;10.90;6.40;;;;;;;0.44;71.79;101528.14;107762;1257;72995;-68
2023/12/15 16:33:56;;;;;;;10.10;6.90;;;;;;;0.43;71.99;101530.22;107788;1257;73001;-68
2023/12/15 16:36:24;;;;;;;9.40;6.20;;;;;;;0.43;72.19;101529.36;107797;1257;72949;-68
2023/12/15 16:38:52;;;;;;;11.00;6.40;;;;;;;0.42;72.51;101534.13;107767;1257;59771;-69
2023/12/15 16:41:26;;;;;;;9.40;6.70;;;;;;;0.41;72.40;101542.14;107755;1258;60200;-70
2023/12/15 16:43:54;;;;;;;10.70;7.00;;;;;;;0.38;72.81;101546.64;107822;1257;73217;-68
2023/12/15 16:46:22;;;;;;;8.80;6.00;;;;;;;0.35;72.70;101549.84;107817;1257;72165;-69
2023/12/15 16:48:53;;;;;;;10.50;6.60;;;;;;;0.33;73.07;101556.72;107809;1258;70987;-68
2023/12/15 16:51:23;;;;;;;10.70;7.30;;;;;;;0.32;73.38;101573.32;107816;1258;59426;-70
2023/12/15 16:53:51;;;;;;;10.50;6.70;;;;;;;0.30;73.69;101570.30;107915;1256;59654;-68
2023/12/15 16:56:18;;;;;;;10.20;6.60;;;;;;;0.30;74.01;101573.29;108104;1256;72994;-69
2023/12/15 16:58:46;;;;;;;10.40;6.70;;;;;;;0.31;74.19;101577.99;107905;1257;74966;-69
2023/12/15 17:01:14;;;;;;;10.00;6.80;;;;;;;0.29;74.35;101579.92;107961;1256;72620;-69
2023/12/15 17:03:44;;;;;;;9.90;6.80;;;;;;;0.27;74.47;101582.51;107970;1257;59346;-68
2023/12/15 17:06:13;;;;;;;10.30;7.00;;;;;;;0.22;74.83;101584.48;107880;1257;62432;-68
2023/12/15 17:08:41;;;;;;;10.60;7.00;;;;;;;0.17;75.06;101591.97;107824;1258;71844;-68
2023/12/15 17:11:13;;;;;;;11.40;7.00;;;;;;;0.15;75.04;101593.27;107765;1257;75095;-68
2023/12/15 17:13:41;;;;;;;10.10;6.80;;;;;;;0.10;75.23;101602.01;107774;1257;73915;-68
2023/12/15 17:16:14;;;;;;;10.20;6.40;;;;;;;0.05;75.67;101602.39;107737;1258;59880;-68
2023/12/15 17:18:46;;;;;;;9.90;6.50;;;;;;;0.01;75.97;101607.74;107743;1257;60092;-68
2023/12/15 17:21:15;;;;;;;9.10;6.20;;;;;;;-0.02;76.05;101616.64;107798;1257;75055;-69
2023/12/15 17:23:43;;;;;;;10.80;7.20;;;;;;;-0.04;76.29;101623.63;107712;1258;72855;-69
2023/12/15 17:26:16;;;;;;;10.60;7.00;;;;;;;-0.03;76.63;101633.02;107604;1258;72758;-69
2023/12/15 17:28:44;;;;;;;11.20;6.80;;;;;;;-0.02;76.82;101633.08;107667;1258;59616;-68
2023/12/15 17:31:12;;;;;;;11.00;7.00;;;;;;;-0.03;76.79;101640.01;107669;1258;59527;-68
2023/12/15 17:33:40;;;;;;;11.90;7.20;;;;;;;-0.03;77.10;101642.97;107714;1258;73676;-68
2023/12/15 17:36:08;;;;;;;10.90;6.90;;;;;;;-0.02;77.25;101646.38;107696;1258;70629;-69
2023/12/15 17:38:36;;;;;;;9.90;6.60;;;;;;;-0.04;77.38;101647.39;107668;1258;74688;-69
2023/12/15 17:41:04;;;;;;;10.40;6.40;;;;;;;-0.05;77.18;101644.27;107752;1258;61118;-70
2023/12/15 17:43:32;;;;;;;11.00;6.60;;;;;;;-0.07;77.41;101643.20;107827;1257;60287;-69
2023/12/15 17:46:00;;;;;;;10.90;6.90;;;;;;;-0.09;77.33;101642.06;107829;1257;73218;-69
2023/12/15 17:48:28;;;;;;;9.60;6.60;;;;;;;-0.14;77.49;101643.13;107862;1261;74929;-69
2023/12/15 17:50:55;;;;;;;12.10;7.90;;;;;;;-0.20;77.30;101646.48;107811;1257;71239;-69
2023/12/15 17:53:25;;;;;;;12.30;8.60;;;;;;;-0.24;77.37;101651.83;107608;1259;60913;-69
2023/12/15 17:55:53;;;;;;;14.30;8.70;;;;;;;-0.29;77.83;101651.14;107844;1257;60195;-69
2023/12/15 17:58:20;;;;;;;12.90;8.00;;;;;;;-0.31;77.79;101659.02;107769;1257;73294;-69
2023/12/15 18:00:49;;;;;;;14.50;8.40;;;;;;;-0.33;77.97;101667.25;107864;1257;73072;-68
2023/12/15 18:03:17;;;;;;;13.80;8.80;;;;;;;-0.36;78.36;101675.66;107791;1257;74953;-70
2023/12/15 18:05:50;;;;;;;13.10;7.80;;;;;;;-0.39;78.78;101681.76;107810;1257;59965;-69
2023/12/15 18:08:19;;;;;;;11.50;7.30;;;;;;;-0.42;78.75;101674.52;107880;1257;60146;-69
2023/12/15 18:10:47;;;;;;;11.40;7.40;;;;;;;-0.43;79.31;101679.50;107814;1257;73221;-69
2023/12/15 18:13:14;;;;;;;13.00;8.70;;;;;;;-0.44;79.31;101688.76;107787;1258;71890;-69
2023/12/15 18:15:42;;;;;;;13.10;8.20;;;;;;;-0.48;79.68;101692.24;107708;1257;72836;-69
2023/12/15 18:18:10;;;;;;;13.10;8.50;;;;;;;-0.50;79.79;101694.92;107677;1259;60305;-69
2023/12/15 18:20:38;;;;;;;11.20;7.20;;;;;;;-0.53;80.07;101693.78;107745;1258;60296;-69
2023/12/15 18:23:08;;;;;;;10.50;6.50;;;;;;;-0.53;80.33;101692.25;107834;1257;74744;-70
2023/12/15 18:25:45;;;;;;;12.30;7.30;;;;;;;-0.52;80.55;101693.83;91918;1257;20002056;-69
2023/12/15 18:28:13;;;;;;;11.80;6.90;;;;;;;-0.50;80.58;101694.92;100157;1257;10001878;-69
2023/12/15 18:30:51;;;;;;;13.20;8.40;;;;;;;-0.48;80.52;101697.66;107540;1257;61017;-69
2023/12/15 18:33:19;;;;;;;11.30;7.90;;;;;;;-0.47;80.41;101703.16;107521;1259;59604;-69
2023/12/15 18:35:47;;;;;;;11.30;7.30;;;;;;;-0.43;80.46;101705.98;108035;1258;74199;-70
2023/12/15 18:38:36;;;;;;;13.50;8.50;;;;;;;-0.42;80.31;101705.27;107510;1259;72809;-69
2023/12/15 18:41:04;;;;;;;12.20;7.60;;;;;;;-0.41;80.35;101705.40;107573;1259;71908;-70
2023/12/15 18:43:32;;;;;;;11.00;7.30;;;;;;;-0.41;80.32;101710.13;107630;1259;61697;-69
2023/12/15 18:45:59;;;;;;;11.90;7.70;;;;;;;-0.42;80.02;101716.19;107637;1258;60404;-69
2023/12/15 18:48:27;;;;;;;11.30;7.30;;;;;;;-0.44;80.34;101722.81;107522;1257;72615;-70
2023/12/15 18:50:55;;;;;;;13.00;7.40;;;;;;;-0.43;80.12;101726.06;107505;1257;73195;-69